sensor_id;sensor_type;location;lat;lon;timestamp;P1;durP1;ratioP1;P2;durP2;ratioP2
18507;SDS011;9383;50.928;12.116;2022-08-19T00:01:48;26.33;;;23.85;;
18507;SDS011;9383;50.928;12.116;2022-08-19T00:04:17;24.63;;;22.15;;
18507;SDS011;9383;50.928;12.116;2022-08-19T00:06:48;25.55;;;23.15;;
18507;SDS011;9383;50.928;12.116;2022-08-19T00:09:15;25.27;;;22.90;;
18507;SDS011;9383;50.928;12.116;2022-08-19T00:11:46;24.75;;;22.38;;
18507;SDS011;9383;50.928;12.116;2022-08-19T00:14:13;25.55;;;23.10;;
18507;SDS011;9383;50.928;12.116;2022-08-19T00:16:42;22.83;;;20.63;;
18507;SDS011;9383;50.928;12.116;2022-08-19T00:19:12;25.13;;;22.92;;
18507;SDS011;9383;50.928;12.116;2022-08-19T00:21:40;23.95;;;21.75;;
18507;SDS011;9383;50.928;12.116;2022-08-19T00:24:07;24.13;;;21.92;;
18507;SDS011;9383;50.928;12.116;2022-08-19T00:26:36;24.65;;;22.25;;
18507;SDS011;9383;50.928;12.116;2022-08-19T00:29:04;22.75;;;20.58;;
18507;SDS011;9383;50.928;12.116;2022-08-19T00:31:33;24.80;;;22.33;;
18507;SDS011;9383;50.928;12.116;2022-08-19T00:33:59;24.17;;;21.85;;
18507;SDS011;9383;50.928;12.116;2022-08-19T00:36:26;25.10;;;22.70;;
18507;SDS011;9383;50.928;12.116;2022-08-19T00:38:54;25.48;;;23.05;;
18507;SDS011;9383;50.928;12.116;2022-08-19T00:41:21;26.33;;;23.80;;
18507;SDS011;9383;50.928;12.116;2022-08-19T00:44:24;26.60;;;24.05;;
18507;SDS011;9383;50.928;12.116;2022-08-19T00:46:47;25.50;;;23.05;;
18507;SDS011;9383;50.928;12.116;2022-08-19T00:52:07;26.15;;;23.45;;
18507;SDS011;9383;50.928;12.116;2022-08-19T00:54:42;25.08;;;22.83;;
18507;SDS011;9383;50.928;12.116;2022-08-19T00:57:12;25.95;;;23.48;;
18507;SDS011;9383;50.928;12.116;2022-08-19T00:59:44;26.95;;;24.38;;
18507;SDS011;9383;50.928;12.116;2022-08-19T01:02:16;27.58;;;24.88;;
18507;SDS011;9383;50.928;12.116;2022-08-19T01:04:43;25.90;;;23.33;;
18507;SDS011;9383;50.928;12.116;2022-08-19T01:07:09;25.75;;;23.38;;
18507;SDS011;9383;50.928;12.116;2022-08-19T01:09:35;25.42;;;22.90;;
18507;SDS011;9383;50.928;12.116;2022-08-19T01:12:01;28.05;;;25.35;;
18507;SDS011;9383;50.928;12.116;2022-08-19T01:14:28;27.23;;;24.65;;
18507;SDS011;9383;50.928;12.116;2022-08-19T01:16:56;27.85;;;25.42;;
18507;SDS011;9383;50.928;12.116;2022-08-19T01:19:29;26.35;;;23.92;;
18507;SDS011;9383;50.928;12.116;2022-08-19T01:22:02;27.52;;;24.92;;
18507;SDS011;9383;50.928;12.116;2022-08-19T01:24:33;28.75;;;26.10;;
18507;SDS011;9383;50.928;12.116;2022-08-19T01:27:02;28.73;;;26.15;;
18507;SDS011;9383;50.928;12.116;2022-08-19T01:29:30;29.67;;;26.88;;
18507;SDS011;9383;50.928;12.116;2022-08-19T01:31:57;30.70;;;27.83;;
18507;SDS011;9383;50.928;12.116;2022-08-19T01:34:24;30.23;;;27.45;;
18507;SDS011;9383;50.928;12.116;2022-08-19T01:36:51;29.85;;;27.20;;
18507;SDS011;9383;50.928;12.116;2022-08-19T01:39:19;30.25;;;27.17;;
18507;SDS011;9383;50.928;12.116;2022-08-19T01:41:49;28.60;;;25.80;;
18507;SDS011;9383;50.928;12.116;2022-08-19T01:44:19;32.00;;;28.90;;
18507;SDS011;9383;50.928;12.116;2022-08-19T01:46:49;31.88;;;29.00;;
18507;SDS011;9383;50.928;12.116;2022-08-19T01:49:18;32.80;;;29.60;;
18507;SDS011;9383;50.928;12.116;2022-08-19T01:51:48;32.85;;;29.83;;
18507;SDS011;9383;50.928;12.116;2022-08-19T01:54:15;33.45;;;30.10;;
18507;SDS011;9383;50.928;12.116;2022-08-19T01:56:44;34.35;;;30.77;;
18507;SDS011;9383;50.928;12.116;2022-08-19T01:59:11;34.78;;;31.48;;
18507;SDS011;9383;50.928;12.116;2022-08-19T02:01:41;35.17;;;31.73;;
18507;SDS011;9383;50.928;12.116;2022-08-19T02:04:08;37.92;;;34.22;;
18507;SDS011;9383;50.928;12.116;2022-08-19T02:06:34;36.53;;;32.92;;
18507;SDS011;9383;50.928;12.116;2022-08-19T02:09:01;38.10;;;34.33;;
18507;SDS011;9383;50.928;12.116;2022-08-19T02:11:32;38.20;;;34.58;;
18507;SDS011;9383;50.928;12.116;2022-08-19T02:14:03;38.67;;;34.88;;
18507;SDS011;9383;50.928;12.116;2022-08-19T02:16:32;36.65;;;33.22;;
18507;SDS011;9383;50.928;12.116;2022-08-19T02:18:59;38.30;;;34.58;;
18507;SDS011;9383;50.928;12.116;2022-08-19T02:21:25;37.65;;;34.08;;
18507;SDS011;9383;50.928;12.116;2022-08-19T02:23:53;37.63;;;33.92;;
18507;SDS011;9383;50.928;12.116;2022-08-19T02:26:20;38.08;;;34.38;;
18507;SDS011;9383;50.928;12.116;2022-08-19T02:28:47;36.63;;;33.08;;
18507;SDS011;9383;50.928;12.116;2022-08-19T02:31:15;37.90;;;34.17;;
18507;SDS011;9383;50.928;12.116;2022-08-19T02:33:46;37.53;;;33.88;;
18507;SDS011;9383;50.928;12.116;2022-08-19T02:36:14;38.53;;;34.63;;
18507;SDS011;9383;50.928;12.116;2022-08-19T02:38:42;39.03;;;35.22;;
18507;SDS011;9383;50.928;12.116;2022-08-19T02:41:13;37.88;;;34.20;;
18507;SDS011;9383;50.928;12.116;2022-08-19T02:43:44;39.75;;;35.70;;
18507;SDS011;9383;50.928;12.116;2022-08-19T02:46:18;39.88;;;35.88;;
18507;SDS011;9383;50.928;12.116;2022-08-19T02:48:48;41.47;;;37.58;;
18507;SDS011;9383;50.928;12.116;2022-08-19T02:51:21;43.92;;;39.08;;
18507;SDS011;9383;50.928;12.116;2022-08-19T02:53:54;41.75;;;37.70;;
18507;SDS011;9383;50.928;12.116;2022-08-19T02:56:21;39.28;;;35.47;;
18507;SDS011;9383;50.928;12.116;2022-08-19T02:58:50;41.33;;;37.45;;
18507;SDS011;9383;50.928;12.116;2022-08-19T03:01:23;41.92;;;37.92;;
18507;SDS011;9383;50.928;12.116;2022-08-19T03:03:54;41.13;;;37.00;;
18507;SDS011;9383;50.928;12.116;2022-08-19T03:06:22;40.20;;;36.28;;
18507;SDS011;9383;50.928;12.116;2022-08-19T03:08:49;38.50;;;34.70;;
18507;SDS011;9383;50.928;12.116;2022-08-19T03:11:16;43.45;;;39.25;;
18507;SDS011;9383;50.928;12.116;2022-08-19T03:13:45;42.40;;;38.33;;
18507;SDS011;9383;50.928;12.116;2022-08-19T03:16:12;40.97;;;36.78;;
18507;SDS011;9383;50.928;12.116;2022-08-19T03:18:38;39.97;;;36.10;;
18507;SDS011;9383;50.928;12.116;2022-08-19T03:21:04;38.58;;;34.85;;
18507;SDS011;9383;50.928;12.116;2022-08-19T03:23:31;40.58;;;36.78;;
18507;SDS011;9383;50.928;12.116;2022-08-19T03:25:58;40.13;;;36.42;;
18507;SDS011;9383;50.928;12.116;2022-08-19T03:28:30;39.88;;;36.13;;
18507;SDS011;9383;50.928;12.116;2022-08-19T03:30:58;38.25;;;34.63;;
18507;SDS011;9383;50.928;12.116;2022-08-19T03:33:28;38.63;;;34.63;;
18507;SDS011;9383;50.928;12.116;2022-08-19T03:36:01;40.88;;;37.08;;
18507;SDS011;9383;50.928;12.116;2022-08-19T03:38:41;40.88;;;36.65;;
18507;SDS011;9383;50.928;12.116;2022-08-19T03:41:17;40.88;;;37.00;;
18507;SDS011;9383;50.928;12.116;2022-08-19T03:43:47;37.50;;;34.03;;
18507;SDS011;9383;50.928;12.116;2022-08-19T03:46:15;38.10;;;34.30;;
18507;SDS011;9383;50.928;12.116;2022-08-19T03:48:47;36.28;;;32.83;;
18507;SDS011;9383;50.928;12.116;2022-08-19T03:51:31;37.30;;;33.80;;
18507;SDS011;9383;50.928;12.116;2022-08-19T03:54:03;37.03;;;33.33;;
18507;SDS011;9383;50.928;12.116;2022-08-19T03:56:33;37.28;;;33.78;;
18507;SDS011;9383;50.928;12.116;2022-08-19T03:59:02;39.83;;;35.83;;
18507;SDS011;9383;50.928;12.116;2022-08-19T04:01:34;38.75;;;35.15;;
18507;SDS011;9383;50.928;12.116;2022-08-19T04:04:00;38.47;;;34.92;;
18507;SDS011;9383;50.928;12.116;2022-08-19T04:06:31;39.72;;;35.85;;
18507;SDS011;9383;50.928;12.116;2022-08-19T04:09:01;42.97;;;38.80;;
18507;SDS011;9383;50.928;12.116;2022-08-19T04:11:33;43.15;;;38.75;;
18507;SDS011;9383;50.928;12.116;2022-08-19T04:14:08;41.58;;;37.58;;
18507;SDS011;9383;50.928;12.116;2022-08-19T04:16:40;43.25;;;38.85;;
18507;SDS011;9383;50.928;12.116;2022-08-19T04:19:09;44.10;;;39.70;;
18507;SDS011;9383;50.928;12.116;2022-08-19T04:21:35;41.90;;;37.67;;
18507;SDS011;9383;50.928;12.116;2022-08-19T04:24:17;40.22;;;36.42;;
18507;SDS011;9383;50.928;12.116;2022-08-19T04:26:44;42.45;;;38.33;;
18507;SDS011;9383;50.928;12.116;2022-08-19T04:29:15;41.22;;;37.13;;
18507;SDS011;9383;50.928;12.116;2022-08-19T04:31:47;41.60;;;37.55;;
18507;SDS011;9383;50.928;12.116;2022-08-19T04:34:15;40.17;;;36.17;;
18507;SDS011;9383;50.928;12.116;2022-08-19T04:36:47;41.92;;;37.90;;
18507;SDS011;9383;50.928;12.116;2022-08-19T04:39:17;39.83;;;35.83;;
18507;SDS011;9383;50.928;12.116;2022-08-19T04:41:48;42.45;;;38.15;;
18507;SDS011;9383;50.928;12.116;2022-08-19T04:44:34;42.63;;;38.47;;
18507;SDS011;9383;50.928;12.116;2022-08-19T04:47:01;43.30;;;38.85;;
18507;SDS011;9383;50.928;12.116;2022-08-19T04:49:31;45.08;;;39.97;;
18507;SDS011;9383;50.928;12.116;2022-08-19T04:51:57;45.78;;;41.40;;
18507;SDS011;9383;50.928;12.116;2022-08-19T04:54:23;44.90;;;40.55;;
18507;SDS011;9383;50.928;12.116;2022-08-19T04:56:53;45.47;;;41.25;;
18507;SDS011;9383;50.928;12.116;2022-08-19T04:59:20;44.00;;;39.70;;
18507;SDS011;9383;50.928;12.116;2022-08-19T05:01:47;45.35;;;40.97;;
18507;SDS011;9383;50.928;12.116;2022-08-19T05:04:15;45.55;;;41.22;;
18507;SDS011;9383;50.928;12.116;2022-08-19T05:06:45;44.67;;;40.30;;
18507;SDS011;9383;50.928;12.116;2022-08-19T05:09:14;44.10;;;39.92;;
18507;SDS011;9383;50.928;12.116;2022-08-19T05:11:41;45.03;;;40.60;;
18507;SDS011;9383;50.928;12.116;2022-08-19T05:14:09;43.08;;;38.80;;
18507;SDS011;9383;50.928;12.116;2022-08-19T05:16:38;44.40;;;40.00;;
18507;SDS011;9383;50.928;12.116;2022-08-19T05:19:05;43.35;;;39.17;;
18507;SDS011;9383;50.928;12.116;2022-08-19T05:21:50;46.70;;;42.15;;
18507;SDS011;9383;50.928;12.116;2022-08-19T05:24:36;44.13;;;39.88;;
18507;SDS011;9383;50.928;12.116;2022-08-19T05:27:02;44.92;;;40.65;;
18507;SDS011;9383;50.928;12.116;2022-08-19T05:29:31;45.13;;;40.92;;
18507;SDS011;9383;50.928;12.116;2022-08-19T05:32:00;47.60;;;42.92;;
18507;SDS011;9383;50.928;12.116;2022-08-19T05:34:30;45.50;;;41.20;;
18507;SDS011;9383;50.928;12.116;2022-08-19T05:36:58;45.03;;;40.72;;
18507;SDS011;9383;50.928;12.116;2022-08-19T05:39:27;43.70;;;39.17;;
18507;SDS011;9383;50.928;12.116;2022-08-19T05:41:57;45.08;;;40.67;;
18507;SDS011;9383;50.928;12.116;2022-08-19T05:44:38;46.20;;;41.60;;
18507;SDS011;9383;50.928;12.116;2022-08-19T05:47:12;48.50;;;43.30;;
18507;SDS011;9383;50.928;12.116;2022-08-19T05:49:40;48.83;;;43.85;;
18507;SDS011;9383;50.928;12.116;2022-08-19T05:52:08;49.05;;;44.10;;
18507;SDS011;9383;50.928;12.116;2022-08-19T05:54:38;51.78;;;43.08;;
18507;SDS011;9383;50.928;12.116;2022-08-19T05:57:07;49.05;;;44.05;;
18507;SDS011;9383;50.928;12.116;2022-08-19T05:59:34;49.17;;;44.20;;
18507;SDS011;9383;50.928;12.116;2022-08-19T06:02:01;49.72;;;44.45;;
18507;SDS011;9383;50.928;12.116;2022-08-19T06:04:29;49.42;;;44.38;;
18507;SDS011;9383;50.928;12.116;2022-08-19T06:06:56;50.20;;;45.03;;
18507;SDS011;9383;50.928;12.116;2022-08-19T06:09:23;50.83;;;45.38;;
18507;SDS011;9383;50.928;12.116;2022-08-19T06:11:54;50.33;;;45.03;;
18507;SDS011;9383;50.928;12.116;2022-08-19T06:14:29;48.58;;;43.45;;
18507;SDS011;9383;50.928;12.116;2022-08-19T06:16:59;50.08;;;44.65;;
18507;SDS011;9383;50.928;12.116;2022-08-19T06:19:27;49.90;;;44.58;;
18507;SDS011;9383;50.928;12.116;2022-08-19T06:21:55;48.95;;;44.03;;
18507;SDS011;9383;50.928;12.116;2022-08-19T06:24:24;48.10;;;43.22;;
18507;SDS011;9383;50.928;12.116;2022-08-19T06:26:53;49.55;;;44.47;;
18507;SDS011;9383;50.928;12.116;2022-08-19T06:29:23;48.40;;;43.65;;
18507;SDS011;9383;50.928;12.116;2022-08-19T06:31:51;46.92;;;41.95;;
18507;SDS011;9383;50.928;12.116;2022-08-19T06:34:21;47.72;;;42.92;;
18507;SDS011;9383;50.928;12.116;2022-08-19T06:36:49;46.35;;;41.42;;
18507;SDS011;9383;50.928;12.116;2022-08-19T06:39:22;45.53;;;41.03;;
18507;SDS011;9383;50.928;12.116;2022-08-19T06:41:54;49.38;;;44.10;;
18507;SDS011;9383;50.928;12.116;2022-08-19T06:44:25;47.78;;;43.00;;
18507;SDS011;9383;50.928;12.116;2022-08-19T06:46:54;45.05;;;40.53;;
18507;SDS011;9383;50.928;12.116;2022-08-19T06:49:22;45.92;;;41.22;;
18507;SDS011;9383;50.928;12.116;2022-08-19T06:51:49;48.83;;;43.72;;
18507;SDS011;9383;50.928;12.116;2022-08-19T06:54:16;46.65;;;41.88;;
18507;SDS011;9383;50.928;12.116;2022-08-19T06:56:43;47.38;;;42.38;;
18507;SDS011;9383;50.928;12.116;2022-08-19T06:59:12;45.80;;;41.10;;
18507;SDS011;9383;50.928;12.116;2022-08-19T07:01:44;49.20;;;44.20;;
18507;SDS011;9383;50.928;12.116;2022-08-19T07:04:16;48.25;;;43.15;;
18507;SDS011;9383;50.928;12.116;2022-08-19T07:06:46;45.88;;;40.92;;
18507;SDS011;9383;50.928;12.116;2022-08-19T07:09:14;44.95;;;40.55;;
18507;SDS011;9383;50.928;12.116;2022-08-19T07:11:47;45.15;;;40.45;;
18507;SDS011;9383;50.928;12.116;2022-08-19T07:14:17;45.60;;;40.85;;
18507;SDS011;9383;50.928;12.116;2022-08-19T07:16:47;47.00;;;42.13;;
18507;SDS011;9383;50.928;12.116;2022-08-19T07:19:16;42.70;;;38.45;;
18507;SDS011;9383;50.928;12.116;2022-08-19T07:21:44;41.00;;;36.63;;
18507;SDS011;9383;50.928;12.116;2022-08-19T07:24:13;42.50;;;37.05;;
18507;SDS011;9383;50.928;12.116;2022-08-19T07:26:42;41.30;;;35.78;;
18507;SDS011;9383;50.928;12.116;2022-08-19T07:29:10;38.92;;;35.03;;
18507;SDS011;9383;50.928;12.116;2022-08-19T07:31:37;40.97;;;36.58;;
18507;SDS011;9383;50.928;12.116;2022-08-19T07:34:08;42.25;;;38.10;;
18507;SDS011;9383;50.928;12.116;2022-08-19T07:36:37;43.08;;;38.65;;
18507;SDS011;9383;50.928;12.116;2022-08-19T07:39:08;42.20;;;37.85;;
18507;SDS011;9383;50.928;12.116;2022-08-19T07:41:45;43.65;;;39.10;;
18507;SDS011;9383;50.928;12.116;2022-08-19T07:44:13;41.55;;;37.00;;
18507;SDS011;9383;50.928;12.116;2022-08-19T07:46:42;40.65;;;36.38;;
18507;SDS011;9383;50.928;12.116;2022-08-19T07:49:12;41.22;;;37.13;;
18507;SDS011;9383;50.928;12.116;2022-08-19T07:51:48;38.50;;;34.85;;
18507;SDS011;9383;50.928;12.116;2022-08-19T07:54:19;39.47;;;35.42;;
18507;SDS011;9383;50.928;12.116;2022-08-19T07:56:48;39.33;;;35.17;;
18507;SDS011;9383;50.928;12.116;2022-08-19T07:59:16;38.85;;;35.00;;
18507;SDS011;9383;50.928;12.116;2022-08-19T08:01:44;39.17;;;35.28;;
18507;SDS011;9383;50.928;12.116;2022-08-19T08:04:11;37.17;;;33.20;;
18507;SDS011;9383;50.928;12.116;2022-08-19T08:06:56;36.78;;;33.25;;
18507;SDS011;9383;50.928;12.116;2022-08-19T08:09:41;37.42;;;33.63;;
18507;SDS011;9383;50.928;12.116;2022-08-19T08:12:11;36.40;;;32.72;;
18507;SDS011;9383;50.928;12.116;2022-08-19T08:14:52;38.35;;;34.33;;
18507;SDS011;9383;50.928;12.116;2022-08-19T08:17:22;37.78;;;33.78;;
18507;SDS011;9383;50.928;12.116;2022-08-19T08:19:52;35.58;;;31.77;;
18507;SDS011;9383;50.928;12.116;2022-08-19T08:22:20;34.85;;;31.45;;
18507;SDS011;9383;50.928;12.116;2022-08-19T08:25:12;35.42;;;31.77;;
18507;SDS011;9383;50.928;12.116;2022-08-19T08:27:44;35.83;;;32.53;;
18507;SDS011;9383;50.928;12.116;2022-08-19T08:30:14;38.53;;;34.72;;
18507;SDS011;9383;50.928;12.116;2022-08-19T08:32:45;37.65;;;33.80;;
18507;SDS011;9383;50.928;12.116;2022-08-19T08:35:12;37.55;;;33.75;;
18507;SDS011;9383;50.928;12.116;2022-08-19T08:37:42;36.25;;;32.80;;
18507;SDS011;9383;50.928;12.116;2022-08-19T08:40:18;37.72;;;33.95;;
18507;SDS011;9383;50.928;12.116;2022-08-19T08:46:09;39.58;;;35.47;;
18507;SDS011;9383;50.928;12.116;2022-08-19T08:51:34;38.30;;;34.60;;
18507;SDS011;9383;50.928;12.116;2022-08-19T08:54:08;39.92;;;35.92;;
18507;SDS011;9383;50.928;12.116;2022-08-19T08:56:39;38.83;;;34.83;;
18507;SDS011;9383;50.928;12.116;2022-08-19T09:02:10;41.72;;;36.58;;
18507;SDS011;9383;50.928;12.116;2022-08-19T09:04:37;38.28;;;34.47;;
18507;SDS011;9383;50.928;12.116;2022-08-19T09:07:10;38.85;;;34.88;;
18507;SDS011;9383;50.928;12.116;2022-08-19T09:09:49;39.67;;;35.63;;
18507;SDS011;9383;50.928;12.116;2022-08-19T09:12:35;41.60;;;36.17;;
18507;SDS011;9383;50.928;12.116;2022-08-19T09:15:34;37.85;;;33.95;;
18507;SDS011;9383;50.928;12.116;2022-08-19T09:18:08;38.72;;;34.88;;
18507;SDS011;9383;50.928;12.116;2022-08-19T09:20:34;38.20;;;34.55;;
18507;SDS011;9383;50.928;12.116;2022-08-19T09:23:00;39.65;;;35.58;;
18507;SDS011;9383;50.928;12.116;2022-08-19T09:25:26;37.83;;;33.72;;
18507;SDS011;9383;50.928;12.116;2022-08-19T09:27:53;35.22;;;31.75;;
18507;SDS011;9383;50.928;12.116;2022-08-19T09:30:26;36.03;;;32.50;;
18507;SDS011;9383;50.928;12.116;2022-08-19T09:32:55;36.55;;;32.95;;
18507;SDS011;9383;50.928;12.116;2022-08-19T09:35:22;35.28;;;31.83;;
18507;SDS011;9383;50.928;12.116;2022-08-19T09:37:51;33.92;;;30.55;;
18507;SDS011;9383;50.928;12.116;2022-08-19T09:40:19;34.50;;;31.05;;
18507;SDS011;9383;50.928;12.116;2022-08-19T09:42:45;30.38;;;27.20;;
18507;SDS011;9383;50.928;12.116;2022-08-19T09:45:13;29.27;;;26.35;;
18507;SDS011;9383;50.928;12.116;2022-08-19T09:47:43;28.33;;;25.58;;
18507;SDS011;9383;50.928;12.116;2022-08-19T09:50:10;26.38;;;23.55;;
18507;SDS011;9383;50.928;12.116;2022-08-19T09:52:38;26.63;;;23.73;;
18507;SDS011;9383;50.928;12.116;2022-08-19T09:55:06;26.15;;;23.38;;
18507;SDS011;9383;50.928;12.116;2022-08-19T09:57:35;27.30;;;24.40;;
18507;SDS011;9383;50.928;12.116;2022-08-19T10:00:03;27.02;;;22.48;;
18507;SDS011;9383;50.928;12.116;2022-08-19T10:02:32;25.50;;;22.75;;
18507;SDS011;9383;50.928;12.116;2022-08-19T10:04:59;24.63;;;22.02;;
18507;SDS011;9383;50.928;12.116;2022-08-19T10:07:45;27.33;;;24.13;;
18507;SDS011;9383;50.928;12.116;2022-08-19T10:10:11;25.88;;;23.08;;
18507;SDS011;9383;50.928;12.116;2022-08-19T10:12:37;25.23;;;22.77;;
18507;SDS011;9383;50.928;12.116;2022-08-19T10:15:05;23.50;;;21.00;;
18507;SDS011;9383;50.928;12.116;2022-08-19T10:17:32;23.38;;;21.00;;
18507;SDS011;9383;50.928;12.116;2022-08-19T10:20:00;20.23;;;18.27;;
18507;SDS011;9383;50.928;12.116;2022-08-19T10:22:29;18.52;;;16.80;;
18507;SDS011;9383;50.928;12.116;2022-08-19T10:24:55;17.45;;;15.82;;
18507;SDS011;9383;50.928;12.116;2022-08-19T10:27:22;18.08;;;16.50;;
18507;SDS011;9383;50.928;12.116;2022-08-19T10:29:48;15.75;;;14.35;;
18507;SDS011;9383;50.928;12.116;2022-08-19T10:32:14;16.35;;;14.65;;
18507;SDS011;9383;50.928;12.116;2022-08-19T10:34:40;17.58;;;15.90;;
18507;SDS011;9383;50.928;12.116;2022-08-19T10:37:07;17.58;;;15.80;;
18507;SDS011;9383;50.928;12.116;2022-08-19T10:39:35;17.20;;;15.50;;
18507;SDS011;9383;50.928;12.116;2022-08-19T10:42:05;17.15;;;15.50;;
18507;SDS011;9383;50.928;12.116;2022-08-19T10:44:35;18.00;;;16.20;;
18507;SDS011;9383;50.928;12.116;2022-08-19T10:47:02;17.95;;;16.25;;
18507;SDS011;9383;50.928;12.116;2022-08-19T10:49:29;18.48;;;16.77;;
18507;SDS011;9383;50.928;12.116;2022-08-19T10:51:55;17.88;;;16.00;;
18507;SDS011;9383;50.928;12.116;2022-08-19T10:54:41;17.33;;;15.32;;
18507;SDS011;9383;50.928;12.116;2022-08-19T10:57:25;14.27;;;12.98;;
18507;SDS011;9383;50.928;12.116;2022-08-19T10:59:55;14.05;;;12.75;;
18507;SDS011;9383;50.928;12.116;2022-08-19T11:02:22;15.30;;;13.80;;
18507;SDS011;9383;50.928;12.116;2022-08-19T11:04:48;14.52;;;13.02;;
18507;SDS011;9383;50.928;12.116;2022-08-19T11:07:17;14.70;;;13.02;;
18507;SDS011;9383;50.928;12.116;2022-08-19T11:09:43;15.15;;;13.63;;
18507;SDS011;9383;50.928;12.116;2022-08-19T11:12:11;17.65;;;13.98;;
18507;SDS011;9383;50.928;12.116;2022-08-19T11:14:38;16.70;;;14.52;;
18507;SDS011;9383;50.928;12.116;2022-08-19T11:17:04;16.27;;;14.48;;
18507;SDS011;9383;50.928;12.116;2022-08-19T11:19:35;15.05;;;13.18;;
18507;SDS011;9383;50.928;12.116;2022-08-19T11:22:02;14.98;;;13.45;;
18507;SDS011;9383;50.928;12.116;2022-08-19T11:24:29;15.27;;;13.68;;
18507;SDS011;9383;50.928;12.116;2022-08-19T11:27:00;13.43;;;11.73;;
18507;SDS011;9383;50.928;12.116;2022-08-19T11:29:34;12.30;;;10.00;;
18507;SDS011;9383;50.928;12.116;2022-08-19T11:32:05;9.90;;;9.10;;
18507;SDS011;9383;50.928;12.116;2022-08-19T11:34:34;10.10;;;8.23;;
18507;SDS011;9383;50.928;12.116;2022-08-19T11:37:02;8.77;;;8.05;;
18507;SDS011;9383;50.928;12.116;2022-08-19T11:39:30;8.38;;;7.68;;
18507;SDS011;9383;50.928;12.116;2022-08-19T11:41:58;6.90;;;6.35;;
18507;SDS011;9383;50.928;12.116;2022-08-19T11:44:28;6.88;;;6.30;;
18507;SDS011;9383;50.928;12.116;2022-08-19T11:46:56;7.50;;;6.93;;
18507;SDS011;9383;50.928;12.116;2022-08-19T11:49:23;7.50;;;6.90;;
18507;SDS011;9383;50.928;12.116;2022-08-19T11:51:55;8.73;;;7.93;;
18507;SDS011;9383;50.928;12.116;2022-08-19T11:54:21;8.45;;;7.63;;
18507;SDS011;9383;50.928;12.116;2022-08-19T11:56:47;7.97;;;7.30;;
18507;SDS011;9383;50.928;12.116;2022-08-19T11:59:14;10.20;;;9.15;;
18507;SDS011;9383;50.928;12.116;2022-08-19T12:01:41;8.77;;;8.07;;
18507;SDS011;9383;50.928;12.116;2022-08-19T12:04:08;10.32;;;9.30;;
18507;SDS011;9383;50.928;12.116;2022-08-19T12:06:36;9.23;;;8.52;;
18507;SDS011;9383;50.928;12.116;2022-08-19T12:09:07;8.95;;;8.20;;
18507;SDS011;9383;50.928;12.116;2022-08-19T12:11:35;9.40;;;8.38;;
18507;SDS011;9383;50.928;12.116;2022-08-19T12:14:03;9.10;;;8.27;;
18507;SDS011;9383;50.928;12.116;2022-08-19T12:16:30;8.07;;;7.28;;
18507;SDS011;9383;50.928;12.116;2022-08-19T12:18:58;8.38;;;7.68;;
18507;SDS011;9383;50.928;12.116;2022-08-19T12:21:29;7.55;;;6.85;;
18507;SDS011;9383;50.928;12.116;2022-08-19T12:23:58;7.32;;;6.63;;
18507;SDS011;9383;50.928;12.116;2022-08-19T12:26:26;7.13;;;6.53;;
18507;SDS011;9383;50.928;12.116;2022-08-19T12:28:54;7.80;;;7.20;;
18507;SDS011;9383;50.928;12.116;2022-08-19T12:31:21;7.20;;;6.60;;
18507;SDS011;9383;50.928;12.116;2022-08-19T12:33:47;7.22;;;6.63;;
18507;SDS011;9383;50.928;12.116;2022-08-19T12:36:14;7.22;;;6.57;;
18507;SDS011;9383;50.928;12.116;2022-08-19T12:38:42;7.57;;;6.88;;
18507;SDS011;9383;50.928;12.116;2022-08-19T12:41:13;7.22;;;6.63;;
18507;SDS011;9383;50.928;12.116;2022-08-19T12:43:43;8.02;;;7.32;;
18507;SDS011;9383;50.928;12.116;2022-08-19T12:46:10;8.93;;;7.65;;
18507;SDS011;9383;50.928;12.116;2022-08-19T12:48:37;8.30;;;7.60;;
18507;SDS011;9383;50.928;12.116;2022-08-19T12:51:08;6.93;;;6.43;;
18507;SDS011;9383;50.928;12.116;2022-08-19T12:53:37;8.45;;;7.75;;
18507;SDS011;9383;50.928;12.116;2022-08-19T12:56:04;8.48;;;7.78;;
18507;SDS011;9383;50.928;12.116;2022-08-19T12:58:32;8.75;;;7.95;;
18507;SDS011;9383;50.928;12.116;2022-08-19T13:01:05;8.70;;;7.90;;
18507;SDS011;9383;50.928;12.116;2022-08-19T13:03:37;8.65;;;7.95;;
18507;SDS011;9383;50.928;12.116;2022-08-19T13:06:04;9.00;;;8.15;;
18507;SDS011;9383;50.928;12.116;2022-08-19T13:08:30;9.07;;;8.27;;
18507;SDS011;9383;50.928;12.116;2022-08-19T13:10:57;8.38;;;7.68;;
18507;SDS011;9383;50.928;12.116;2022-08-19T13:13:32;7.88;;;7.18;;
18507;SDS011;9383;50.928;12.116;2022-08-19T13:16:02;7.13;;;6.57;;
18507;SDS011;9383;50.928;12.116;2022-08-19T13:18:28;7.13;;;6.43;;
18507;SDS011;9383;50.928;12.116;2022-08-19T13:20:55;7.15;;;6.55;;
18507;SDS011;9383;50.928;12.116;2022-08-19T13:23:21;7.90;;;5.95;;
18507;SDS011;9383;50.928;12.116;2022-08-19T13:26:01;7.05;;;6.47;;
18507;SDS011;9383;50.928;12.116;2022-08-19T13:28:31;6.10;;;5.60;;
18507;SDS011;9383;50.928;12.116;2022-08-19T13:31:18;5.90;;;5.40;;
18507;SDS011;9383;50.928;12.116;2022-08-19T13:34:04;5.45;;;5.05;;
18507;SDS011;9383;50.928;12.116;2022-08-19T13:36:32;5.68;;;5.18;;
18507;SDS011;9383;50.928;12.116;2022-08-19T13:38:59;5.45;;;4.97;;
18507;SDS011;9383;50.928;12.116;2022-08-19T13:41:26;4.75;;;4.35;;
18507;SDS011;9383;50.928;12.116;2022-08-19T13:43:53;4.55;;;4.20;;
18507;SDS011;9383;50.928;12.116;2022-08-19T13:46:20;5.00;;;4.57;;
18507;SDS011;9383;50.928;12.116;2022-08-19T13:48:47;4.07;;;3.78;;
18507;SDS011;9383;50.928;12.116;2022-08-19T13:51:14;4.55;;;4.25;;
18507;SDS011;9383;50.928;12.116;2022-08-19T13:53:42;4.75;;;4.35;;
18507;SDS011;9383;50.928;12.116;2022-08-19T13:56:11;4.53;;;4.15;;
18507;SDS011;9383;50.928;12.116;2022-08-19T13:58:40;4.43;;;4.05;;
18507;SDS011;9383;50.928;12.116;2022-08-19T14:01:07;5.40;;;4.93;;
18507;SDS011;9383;50.928;12.116;2022-08-19T14:03:35;5.38;;;4.88;;
18507;SDS011;9383;50.928;12.116;2022-08-19T14:06:02;5.00;;;4.53;;
18507;SDS011;9383;50.928;12.116;2022-08-19T14:08:29;5.65;;;5.05;;
18507;SDS011;9383;50.928;12.116;2022-08-19T14:10:57;4.65;;;4.35;;
18507;SDS011;9383;50.928;12.116;2022-08-19T14:13:24;4.93;;;4.53;;
18507;SDS011;9383;50.928;12.116;2022-08-19T14:15:51;5.18;;;4.75;;
18507;SDS011;9383;50.928;12.116;2022-08-19T14:18:18;5.35;;;4.88;;
18507;SDS011;9383;50.928;12.116;2022-08-19T14:20:45;5.50;;;4.97;;
18507;SDS011;9383;50.928;12.116;2022-08-19T14:23:11;5.10;;;4.70;;
18507;SDS011;9383;50.928;12.116;2022-08-19T14:25:39;4.80;;;4.50;;
18507;SDS011;9383;50.928;12.116;2022-08-19T14:28:05;6.20;;;5.70;;
18507;SDS011;9383;50.928;12.116;2022-08-19T14:30:34;5.78;;;5.28;;
18507;SDS011;9383;50.928;12.116;2022-08-19T14:33:03;6.43;;;5.88;;
18507;SDS011;9383;50.928;12.116;2022-08-19T14:35:32;6.30;;;5.82;;
18507;SDS011;9383;50.928;12.116;2022-08-19T14:38:00;8.18;;;6.53;;
18507;SDS011;9383;50.928;12.116;2022-08-19T14:40:32;7.90;;;7.25;;
18507;SDS011;9383;50.928;12.116;2022-08-19T14:42:59;7.05;;;6.55;;
18507;SDS011;9383;50.928;12.116;2022-08-19T14:45:30;7.60;;;6.90;;
18507;SDS011;9383;50.928;12.116;2022-08-19T14:48:00;6.70;;;6.07;;
18507;SDS011;9383;50.928;12.116;2022-08-19T14:50:27;7.10;;;6.53;;
18507;SDS011;9383;50.928;12.116;2022-08-19T14:52:57;6.93;;;6.38;;
18507;SDS011;9383;50.928;12.116;2022-08-19T14:55:28;6.45;;;6.00;;